createdAt,value
2023-01-10T01:57:13.066Z,99908.14
2023-01-10T01:59:44.746Z,99901.06
2023-01-10T02:02:19.653Z,99892.25
2023-01-10T02:05:01.607Z,99914.15
2023-01-10T02:07:33.857Z,99893.98
2023-01-10T02:10:03.228Z,99892.58
2023-01-10T02:12:30.728Z,99904.52
2023-01-10T02:22:11.668Z,99886.96
2023-01-10T02:24:50.872Z,99888.21
2023-01-10T02:27:27.442Z,99891.10
2023-01-10T02:30:03.693Z,99895.34
2023-01-10T02:32:56.968Z,99878.73
2023-01-10T02:36:13.059Z,99901.45
2023-01-10T02:38:58.705Z,99897.69
2023-01-10T02:41:50.720Z,99896.63
2023-01-10T02:44:46.329Z,99898.14
2023-01-10T02:47:13.420Z,99906.20
2023-01-10T02:49:50.921Z,99915.27
2023-01-10T02:52:24.571Z,99913.09
2023-01-10T02:54:51.967Z,99912.88
2023-01-10T02:57:28.901Z,99909.42
2023-01-10T02:59:55.843Z,99902.90
2023-01-10T03:02:45.581Z,99900.84
2023-01-10T03:05:39.231Z,99913.45
2023-01-10T03:08:24.543Z,99917.23
2023-01-10T03:10:55.677Z,99922.81
2023-01-10T03:13:44.278Z,99925.73
2023-01-10T03:16:14.101Z,99919.38
2023-01-10T03:18:50.910Z,99932.91
2023-01-10T03:21:17.647Z,99939.48
2023-01-10T03:23:44.457Z,99942.36
2023-01-10T03:26:11.231Z,99943.41
2023-01-10T03:28:45.845Z,99944.60
2023-01-10T03:31:19.134Z,99939.25
2023-01-10T03:33:45.958Z,99938.73
2023-01-10T03:36:32.103Z,99952.49
2023-01-10T03:39:11.409Z,99943.91
2023-01-10T03:41:42.911Z,99950.23
2023-01-10T03:44:54.699Z,99944.63
2023-01-10T03:47:28.134Z,99940.64
2023-01-10T03:49:56.364Z,99940.55
2023-01-10T03:52:23.093Z,99942.59
2023-01-10T03:54:49.775Z,99951.35
2023-01-10T03:57:22.029Z,99939.41
2023-01-10T03:59:53.544Z,99937.52
2023-01-10T04:02:20.531Z,99939.31
2023-01-10T04:04:47.233Z,99943.01
2023-01-10T04:07:13.964Z,99951.89
2023-01-10T04:09:40.631Z,99961.84
2023-01-10T04:12:07.515Z,99965.52
2023-01-10T04:14:34.283Z,99954.86
2023-01-10T04:17:01.060Z,99966.30
2023-01-10T04:19:28.018Z,99973.67
2023-01-10T04:21:54.692Z,99968.39
2023-01-10T04:24:21.496Z,99962.83
2023-01-10T04:26:48.386Z,99968.10
2023-01-10T04:29:15.199Z,99967.63
2023-01-10T04:31:41.969Z,99966.32
2023-01-10T04:34:08.989Z,99970.04
2023-01-10T04:36:36.524Z,99974.27
2023-01-10T04:39:04.075Z,99984.79
2023-01-10T04:41:30.855Z,99984.39
2023-01-10T04:43:57.598Z,99981.65
2023-01-10T04:46:24.350Z,99981.75
2023-01-10T04:48:51.143Z,99988.35
2023-01-10T04:51:18.019Z,99997.31
2023-01-10T04:53:44.712Z,100000.20
2023-01-10T04:56:18.299Z,100005.90
2023-01-10T04:58:45.345Z,99997.52
2023-01-10T05:01:20.342Z,99996.17
2023-01-10T05:03:48.975Z,99991.77
2023-01-10T05:06:16.106Z,99991.63
2023-01-10T05:08:43.046Z,100003.11
2023-01-10T05:11:09.753Z,99987.71
2023-01-10T05:13:36.521Z,99990.34
2023-01-10T05:16:03.471Z,99990.14
2023-01-10T05:18:30.478Z,99998.54
2023-01-10T05:21:00.657Z,100006.40
2023-01-10T05:23:28.749Z,100003.52
2023-01-10T05:25:55.597Z,100010.48
2023-01-10T05:28:22.292Z,100012.71
2023-01-10T05:30:49.045Z,100014.87
2023-01-10T05:33:15.789Z,100018.04
2023-01-10T05:35:42.449Z,100025.27
2023-01-10T05:38:09.249Z,100018.48
2023-01-10T05:40:35.956Z,100020.34
2023-01-10T05:43:02.675Z,100028.30
2023-01-10T05:45:29.355Z,100028.31
2023-01-10T05:47:56.128Z,100028.54
2023-01-10T05:50:22.839Z,100032.67
2023-01-10T05:52:49.571Z,100037.11
2023-01-10T05:55:16.371Z,100033.00
2023-01-10T05:57:43.033Z,100036.79
2023-01-10T06:00:10.575Z,100045.41
2023-01-10T06:02:40.056Z,100048.39
2023-01-10T06:05:07.172Z,100059.12
2023-01-10T06:07:33.841Z,100077.92
2023-01-10T06:10:00.552Z,100066.95
2023-01-10T06:12:27.296Z,100063.88
2023-01-10T06:14:54.038Z,100053.30
2023-01-10T06:17:20.748Z,100057.34
2023-01-10T06:19:47.541Z,100058.28
2023-01-10T06:22:32.811Z,100067.79
2023-01-10T06:25:02.221Z,100083.29
2023-01-10T06:27:29.155Z,100074.01
2023-01-10T06:29:56.798Z,100071.20
2023-01-10T06:32:23.490Z,100066.89
2023-01-10T06:34:50.242Z,100066.88
2023-01-10T06:37:19.412Z,100076.35
2023-01-10T06:39:47.060Z,100073.46
2023-01-10T06:42:13.814Z,100073.30
2023-01-10T06:44:40.576Z,100076.00
2023-01-10T06:47:07.364Z,100086.31
2023-01-10T06:49:34.138Z,100078.15
2023-01-10T06:52:00.884Z,100075.69
2023-01-10T06:54:27.579Z,100080.70
2023-01-10T06:56:54.265Z,100087.09
2023-01-10T06:59:21.037Z,100105.02
2023-01-10T07:01:47.966Z,100107.70
2023-01-10T07:04:14.800Z,100104.56
2023-01-10T07:06:41.696Z,100106.72
2023-01-10T07:09:08.527Z,100113.74
2023-01-10T07:11:35.595Z,100124.55
2023-01-10T07:14:02.338Z,100131.59
2023-01-10T07:16:29.165Z,100125.55
2023-01-10T07:18:56.096Z,100137.09
2023-01-10T07:21:22.856Z,100129.55
2023-01-10T07:23:52.670Z,100128.30
2023-01-10T07:26:19.638Z,100133.73
2023-01-10T07:28:50.988Z,100136.13
2023-01-10T07:31:21.110Z,100143.92
2023-01-10T07:33:47.913Z,100147.52
2023-01-10T07:36:14.699Z,100150.63
2023-01-10T07:38:41.528Z,100159.50
2023-01-10T07:41:08.439Z,100146.95
2023-01-10T14:22:31.600Z,100235.64
2023-01-10T14:24:59.909Z,100235.04
2023-01-10T14:27:48.002Z,100236.27
2023-01-10T14:30:20.988Z,100239.59
2023-01-10T14:32:50.536Z,100246.44
2023-01-10T14:35:19.501Z,100251.77
2023-01-10T14:37:54.895Z,100242.55
2023-01-10T14:40:54.050Z,100248.42
2023-01-10T14:43:24.883Z,100246.03
2023-01-10T14:46:03.620Z,100243.10
2023-01-10T14:48:32.832Z,100247.78
2023-01-10T14:51:12.487Z,100265.63
2023-01-10T14:53:39.294Z,100273.18
2023-01-10T14:56:24.169Z,100268.65
2023-01-10T14:58:51.131Z,100260.05
2023-01-10T15:01:22.812Z,100264.35
2023-01-10T15:03:50.973Z,100266.44
2023-01-10T15:06:17.569Z,100272.53
2023-01-10T15:08:45.039Z,100277.75
2023-01-10T15:11:13.479Z,100281.48
2023-01-10T15:13:53.245Z,100285.21
2023-01-10T15:18:50.324Z,100288.90
2023-01-10T15:21:20.675Z,100285.35
2023-01-10T15:23:47.798Z,100284.42
2023-01-10T15:26:24.774Z,100290.62
2023-01-10T15:29:14.373Z,100290.33
2023-01-10T15:31:41.168Z,100282.05
2023-01-10T15:34:25.453Z,100277.33
2023-01-10T15:36:56.994Z,100286.36
2023-01-10T15:39:32.462Z,100282.00
2023-01-10T15:42:01.863Z,100280.70
2023-01-10T15:44:46.201Z,100278.90
2023-01-10T15:47:39.897Z,100287.45
2023-01-10T15:50:29.369Z,100282.39
2023-01-10T15:53:04.703Z,100276.69
2023-01-10T15:55:48.486Z,100280.23
2023-01-10T15:58:28.558Z,100286.76
2023-01-10T16:00:56.374Z,100287.23
2023-01-10T16:03:25.781Z,100279.48
2023-01-10T16:05:58.343Z,100282.58
